createdAt,value
2023-04-16T00:00:13.776Z,37.48
2023-04-16T00:01:45.575Z,37.89
2023-04-16T00:03:17.332Z,37.57
2023-04-16T00:04:49.517Z,37.79
2023-04-16T00:06:21.616Z,37.84
2023-04-16T00:07:53.507Z,37.73
2023-04-16T00:09:25.154Z,37.71
2023-04-16T00:10:56.742Z,37.37
2023-04-16T00:12:30.470Z,37.79
2023-04-16T00:14:02.005Z,37.79
2023-04-16T00:15:35.734Z,38.21
2023-04-16T00:17:10.576Z,37.80
2023-04-16T00:18:42.636Z,38.16
2023-04-16T00:20:14.533Z,38.34
2023-04-16T00:21:49.263Z,38.35
2023-04-16T00:23:22.081Z,38.35
2023-04-16T00:24:53.655Z,38.74
2023-04-16T00:26:25.534Z,38.23
2023-04-16T00:27:57.601Z,38.90
2023-04-16T00:29:31.291Z,38.61
2023-04-16T00:31:03.130Z,38.55
2023-04-16T00:32:35.054Z,38.54
2023-04-16T00:34:06.946Z,38.51
2023-04-16T00:35:39.808Z,39.34
2023-04-16T00:37:11.533Z,38.73
2023-04-16T00:38:43.238Z,39.33
2023-04-16T00:40:14.801Z,39.02
2023-04-16T00:41:46.488Z,39.18
2023-04-16T00:43:22.627Z,38.30
2023-04-16T00:44:54.286Z,39.43
2023-04-16T00:46:28.896Z,39.09
2023-04-16T00:48:03.066Z,39.33
2023-04-16T00:49:38.139Z,38.58
2023-04-16T00:51:10.157Z,38.73
2023-04-16T00:52:44.773Z,39.30
2023-04-16T00:54:19.111Z,39.20
2023-04-16T00:55:50.909Z,39.50
2023-04-16T00:57:25.157Z,39.40
2023-04-16T00:58:57.404Z,39.00
2023-04-16T01:00:29.211Z,39.27
2023-04-16T01:02:04.061Z,39.43
2023-04-16T01:03:39.968Z,39.80
2023-04-16T01:05:12.050Z,40.04
2023-04-16T01:06:44.220Z,39.42
2023-04-16T01:08:22.244Z,39.47
2023-04-16T01:09:53.824Z,39.56
2023-04-16T01:11:26.444Z,39.33
2023-04-16T01:12:58.347Z,39.54
2023-04-16T01:14:30.122Z,39.63
2023-04-16T01:16:01.893Z,39.86
2023-04-16T01:17:33.546Z,39.86
2023-04-16T01:19:05.141Z,39.77
2023-04-16T01:20:36.740Z,39.65
2023-04-16T01:22:08.655Z,40.12
2023-04-16T01:23:40.719Z,39.73
2023-04-16T01:25:16.044Z,40.33
2023-04-16T01:26:47.811Z,39.82
2023-04-16T01:28:20.023Z,40.23
2023-04-16T01:29:51.880Z,40.17
2023-04-16T01:31:24.030Z,40.44
2023-04-16T01:32:56.418Z,40.51
2023-04-16T01:34:28.228Z,40.33
2023-04-16T01:35:59.826Z,40.52
2023-04-16T01:37:31.904Z,40.13
2023-04-16T01:39:04.523Z,39.99
2023-04-16T01:40:36.723Z,40.42
2023-04-16T01:42:08.987Z,40.30
2023-04-16T01:43:44.180Z,40.50
2023-04-16T01:45:15.888Z,40.16
2023-04-16T01:46:47.705Z,40.16
2023-04-16T01:48:22.929Z,40.32
2023-04-16T01:49:54.683Z,40.22
2023-04-16T01:51:27.377Z,40.54
2023-04-16T01:52:58.986Z,40.56
2023-04-16T01:54:30.996Z,40.16
2023-04-16T01:56:03.266Z,40.76
2023-04-16T01:57:35.188Z,40.66
2023-04-16T01:59:06.936Z,40.36
2023-04-16T02:00:38.984Z,40.49
2023-04-16T02:02:14.718Z,40.56
2023-04-16T02:03:46.673Z,40.69
2023-04-16T02:05:18.487Z,40.77
2023-04-16T02:06:50.657Z,40.76
2023-04-16T02:08:22.249Z,41.01
2023-04-16T02:09:54.157Z,41.01
2023-04-16T02:11:26.576Z,41.14
2023-04-16T02:12:58.398Z,41.02
2023-04-16T02:14:30.492Z,41.09
2023-04-16T02:16:02.942Z,41.28
2023-04-16T02:17:34.556Z,41.13
2023-04-16T02:19:07.183Z,41.06
2023-04-16T02:20:42.723Z,41.00
2023-04-16T02:22:14.269Z,41.35
2023-04-16T02:23:48.088Z,41.33
2023-04-16T02:25:20.320Z,41.28
2023-04-16T02:26:52.008Z,41.27
2023-04-16T02:28:24.085Z,41.51
2023-04-16T02:29:55.717Z,41.38
2023-04-16T02:31:28.884Z,41.41
2023-04-16T02:33:01.407Z,41.57
2023-04-16T02:34:34.746Z,41.56
2023-04-16T02:36:07.008Z,41.52
2023-04-16T02:37:40.905Z,41.57
2023-04-16T02:39:12.496Z,41.61
2023-04-16T02:40:44.555Z,41.28
2023-04-16T02:42:18.586Z,41.59
2023-04-16T02:43:50.295Z,41.69
2023-04-16T02:45:22.148Z,41.76
2023-04-16T02:46:54.196Z,41.84
2023-04-16T02:48:28.909Z,41.47
2023-04-16T02:50:02.482Z,41.47
2023-04-16T02:51:34.429Z,41.65
2023-04-16T02:53:07.960Z,41.36
2023-04-16T02:54:39.617Z,41.68
2023-04-16T02:56:11.652Z,41.68
2023-04-16T02:57:43.341Z,41.69
2023-04-16T02:59:15.084Z,41.32
2023-04-16T03:00:46.670Z,41.93
2023-04-16T03:02:18.551Z,41.70
2023-04-16T03:03:50.313Z,41.70
2023-04-16T03:05:21.966Z,41.85
2023-04-16T03:06:57.220Z,41.73
2023-04-16T03:08:28.814Z,41.93
2023-04-16T03:10:00.484Z,42.14
2023-04-16T03:11:32.749Z,41.90
2023-04-16T03:13:04.412Z,42.06
2023-04-16T03:14:36.216Z,42.46
2023-04-16T03:16:08.148Z,41.89
2023-04-16T03:17:39.934Z,42.11
2023-04-16T03:19:11.868Z,42.01
2023-04-16T03:20:43.764Z,42.21
2023-04-16T03:22:15.650Z,42.46
2023-04-16T03:23:47.825Z,42.18
2023-04-16T03:25:22.053Z,42.02
2023-04-16T03:26:54.010Z,42.37
2023-04-16T03:28:26.427Z,42.19
2023-04-16T03:29:58.065Z,42.08
2023-04-16T03:31:29.738Z,42.17
2023-04-16T03:33:01.719Z,42.17
2023-04-16T03:34:33.551Z,42.33
2023-04-16T03:36:05.651Z,42.47
2023-04-16T03:37:37.271Z,42.60
2023-04-16T03:39:09.029Z,42.63
2023-04-16T03:40:40.987Z,42.69
2023-04-16T03:42:12.649Z,42.70
2023-04-16T03:43:44.342Z,42.54
2023-04-16T03:45:16.240Z,42.52
2023-04-16T03:46:47.936Z,43.02
2023-04-16T03:48:19.559Z,42.77
2023-04-16T03:49:51.205Z,42.65
2023-04-16T03:51:22.864Z,42.71
2023-04-16T03:52:54.521Z,42.78
2023-04-16T03:54:26.088Z,42.88
2023-04-16T03:55:57.816Z,42.72
2023-04-16T03:57:29.500Z,43.10
2023-04-16T03:59:01.159Z,42.97
2023-04-16T04:00:32.813Z,43.12
2023-04-16T04:02:04.469Z,43.20
2023-04-16T04:03:36.466Z,43.21
2023-04-16T04:05:08.549Z,43.18
2023-04-16T04:06:40.247Z,43.42
2023-04-16T04:08:11.984Z,43.15
2023-04-16T04:09:43.790Z,43.29
2023-04-16T04:11:15.738Z,43.33
2023-04-16T04:12:47.907Z,43.37
2023-04-16T04:14:19.593Z,43.31
2023-04-16T04:15:51.495Z,43.41
2023-04-16T04:17:26.349Z,43.38
2023-04-16T04:18:58.176Z,43.76
2023-04-16T04:20:32.942Z,43.46
2023-04-16T04:22:04.502Z,43.74
2023-04-16T04:23:36.261Z,43.37
2023-04-16T04:25:08.720Z,43.32
2023-04-16T04:26:40.264Z,43.21
2023-04-16T04:28:12.552Z,43.42
2023-04-16T04:29:44.326Z,43.37
2023-04-16T04:31:16.104Z,43.55
2023-04-16T04:32:47.838Z,43.63
2023-04-16T04:34:19.530Z,43.69
2023-04-16T04:35:51.701Z,43.68
2023-04-16T04:37:23.452Z,43.72
2023-04-16T04:38:55.012Z,43.57
2023-04-16T04:40:26.638Z,43.53
2023-04-16T04:41:58.411Z,43.52
2023-04-16T04:43:30.366Z,43.57
2023-04-16T04:45:02.027Z,43.65
2023-04-16T04:46:33.856Z,44.14
2023-04-16T04:48:05.929Z,44.21
2023-04-16T04:49:37.542Z,44.07
2023-04-16T04:51:09.131Z,44.16
2023-04-16T04:52:41.203Z,43.83
2023-04-16T04:54:12.888Z,43.71
2023-04-16T04:55:44.469Z,44.24
2023-04-16T04:57:18.588Z,43.88
2023-04-16T04:58:50.789Z,43.72
2023-04-16T05:00:22.435Z,44.13
2023-04-16T05:01:54.132Z,43.94
2023-04-16T05:03:25.884Z,43.58
2023-04-16T05:04:58.965Z,43.87
2023-04-16T05:06:31.410Z,43.62
2023-04-16T05:08:04.165Z,43.77
2023-04-16T05:09:35.725Z,43.40
2023-04-16T05:11:07.387Z,43.91
2023-04-16T05:12:40.258Z,43.80
2023-04-16T05:14:12.171Z,43.95
2023-04-16T05:15:45.335Z,43.56
2023-04-16T05:17:17.154Z,43.95
2023-04-16T05:18:48.874Z,43.94
2023-04-16T05:20:21.091Z,43.76
2023-04-16T05:21:55.132Z,44.20
2023-04-16T05:23:27.523Z,44.09
2023-04-16T05:24:59.432Z,44.08
2023-04-16T05:26:31.328Z,43.84
2023-04-16T05:28:04.880Z,44.44
2023-04-16T05:29:36.717Z,43.89
2023-04-16T05:31:08.558Z,44.28
2023-04-16T05:32:44.141Z,44.18
2023-04-16T05:34:16.707Z,44.10
2023-04-16T05:35:50.902Z,43.68
2023-04-16T05:37:22.758Z,43.97
2023-04-16T05:38:54.365Z,43.82
2023-04-16T05:40:27.040Z,43.79
2023-04-16T05:41:59.012Z,43.98
2023-04-16T05:43:30.689Z,44.13
2023-04-16T05:45:02.931Z,43.89
2023-04-16T05:46:34.828Z,43.94
2023-04-16T05:48:13.945Z,44.22
2023-04-16T05:49:46.208Z,43.96
2023-04-16T05:51:18.025Z,43.82
2023-04-16T05:52:49.659Z,44.73
2023-04-16T05:54:21.384Z,43.94
2023-04-16T05:55:53.236Z,44.08
2023-04-16T05:57:24.955Z,44.81
2023-04-16T05:58:56.712Z,44.15
2023-04-16T06:00:28.564Z,43.99
2023-04-16T06:02:00.742Z,44.07
2023-04-16T06:03:32.620Z,44.59
2023-04-16T06:05:27.699Z,44.08
2023-04-16T06:06:59.690Z,44.20
2023-04-16T06:08:31.589Z,44.34
2023-04-16T06:10:03.404Z,44.59
2023-04-16T06:11:37.725Z,44.27
2023-04-16T06:13:09.584Z,44.45
2023-04-16T06:14:42.143Z,44.50
2023-04-16T06:16:14.575Z,43.88
2023-04-16T06:17:49.774Z,44.31
2023-04-16T06:19:22.119Z,44.33
2023-04-16T06:20:54.157Z,44.06
2023-04-16T06:22:26.656Z,44.49
2023-04-16T06:23:58.755Z,43.94
2023-04-16T06:25:32.442Z,44.26
2023-04-16T06:27:04.620Z,44.51
2023-04-16T06:28:36.604Z,44.48
2023-04-16T06:30:12.241Z,44.65
2023-04-16T06:31:44.806Z,44.94
2023-04-16T06:33:23.186Z,45.07
2023-04-16T06:34:56.659Z,44.52
2023-04-16T06:36:29.410Z,45.46
2023-04-16T06:38:02.975Z,44.72
2023-04-16T06:39:34.944Z,45.21
2023-04-16T06:41:07.110Z,45.51
2023-04-16T06:42:38.997Z,44.83
2023-04-16T06:44:11.021Z,45.41
2023-04-16T06:45:43.117Z,45.21
2023-04-16T06:47:14.900Z,44.60
2023-04-16T06:48:47.111Z,45.18
2023-04-16T06:50:19.117Z,45.15
2023-04-16T06:51:51.670Z,45.36
2023-04-16T06:53:23.978Z,45.05
2023-04-16T06:54:56.028Z,45.02
2023-04-16T06:56:41.559Z,45.12
2023-04-16T06:58:13.281Z,45.30
2023-04-16T06:59:45.257Z,45.22
2023-04-16T07:01:18.440Z,44.97
2023-04-16T07:02:50.589Z,45.04
2023-04-16T07:04:23.836Z,44.84
2023-04-16T07:05:59.482Z,44.62
2023-04-16T07:07:36.444Z,44.86
2023-04-16T07:09:11.436Z,44.83
2023-04-16T07:10:43.743Z,44.70
2023-04-16T07:12:17.477Z,44.50
2023-04-16T07:13:51.659Z,44.53
2023-04-16T07:15:24.286Z,44.70
2023-04-16T07:16:56.204Z,44.21
2023-04-16T07:18:28.401Z,44.54
2023-04-16T07:20:00.668Z,44.42
2023-04-16T07:21:33.234Z,44.11
2023-04-16T07:23:08.846Z,43.99
2023-04-16T07:24:40.684Z,43.64
2023-04-16T07:26:12.519Z,43.79
2023-04-16T07:27:46.240Z,43.69
2023-04-16T07:29:45.566Z,43.37
2023-04-16T07:31:17.468Z,43.52
2023-04-16T07:32:52.806Z,43.45
2023-04-16T07:34:24.649Z,42.96
2023-04-16T07:35:57.471Z,42.84
2023-04-16T07:37:29.974Z,42.59
2023-04-16T07:39:02.889Z,42.44
2023-04-16T07:40:34.929Z,42.35
2023-04-16T07:42:07.137Z,42.13
2023-04-16T07:43:38.904Z,42.33
2023-04-16T07:45:10.947Z,41.87
2023-04-16T07:46:47.500Z,41.62
2023-04-16T07:48:29.495Z,41.62
2023-04-16T07:50:06.868Z,41.41
2023-04-16T07:52:35.346Z,41.38
2023-04-16T08:29:28.575Z,40.30
2023-04-16T08:31:05.388Z,40.23
2023-04-16T08:33:01.717Z,40.35
2023-04-16T08:34:33.769Z,40.50
2023-04-16T08:36:06.024Z,40.68
2023-04-16T08:37:44.332Z,40.60
2023-04-16T08:39:16.743Z,40.41
2023-04-16T08:40:51.037Z,40.17
2023-04-16T08:42:28.969Z,40.17
2023-04-16T08:46:37.915Z,39.76
2023-04-16T08:54:11.404Z,39.56
2023-04-16T08:56:09.792Z,40.03
2023-04-16T08:58:00.319Z,39.75
2023-04-16T09:01:39.749Z,39.50
2023-04-16T09:07:33.661Z,39.24
2023-04-16T09:10:17.840Z,39.14
2023-04-16T09:33:49.277Z,38.16
2023-04-16T09:35:21.684Z,38.19
2023-04-16T09:37:11.757Z,38.17
2023-04-16T09:38:52.338Z,38.11
2023-04-16T09:42:13.702Z,37.69
2023-04-16T09:44:24.370Z,37.45
2023-04-16T09:45:56.132Z,37.48
2023-04-16T09:47:38.859Z,37.22
2023-04-16T09:49:45.917Z,37.03
2023-04-16T09:51:18.087Z,37.04
2023-04-16T09:52:57.155Z,36.92
2023-04-16T09:54:32.043Z,36.75
2023-04-16T09:59:56.119Z,36.13
2023-04-16T10:04:20.672Z,35.82
2023-04-16T10:05:54.108Z,35.78
2023-04-16T10:17:48.200Z,35.07
2023-04-16T10:19:19.833Z,35.21
2023-04-16T10:25:10.878Z,34.87
2023-04-16T10:27:28.072Z,34.77
2023-04-16T10:34:39.355Z,34.15
2023-04-16T10:36:40.740Z,34.22
2023-04-16T10:38:54.418Z,34.13
2023-04-16T10:40:31.143Z,34.05
2023-04-16T10:42:18.839Z,34.05
2023-04-16T10:44:18.605Z,33.73
2023-04-16T10:45:50.652Z,33.63
2023-04-16T10:47:22.632Z,33.63
2023-04-16T10:48:54.642Z,33.62
2023-04-16T10:54:41.450Z,33.52
2023-04-16T11:01:16.737Z,33.34
2023-04-16T11:05:27.652Z,33.30
2023-04-16T11:07:30.198Z,33.11
2023-04-16T11:09:13.482Z,33.13
2023-04-16T11:10:47.644Z,32.97
2023-04-16T11:12:30.866Z,33.05
2023-04-16T11:14:05.337Z,32.98
2023-04-16T11:15:41.666Z,33.10
2023-04-16T11:17:15.776Z,33.08
2023-04-16T11:25:21.519Z,33.23
2023-04-16T11:26:53.428Z,33.08
2023-04-16T11:28:34.970Z,32.98
2023-04-16T11:30:08.516Z,33.17
2023-04-16T11:31:42.568Z,33.35
2023-04-16T11:33:23.015Z,33.21
2023-04-16T11:34:57.668Z,32.89
2023-04-16T11:37:01.796Z,32.96
2023-04-16T11:39:03.171Z,33.03
2023-04-16T11:40:35.195Z,33.21
2023-04-16T11:42:14.763Z,33.13
2023-04-16T11:43:49.791Z,32.89
2023-04-16T11:45:47.833Z,33.02
2023-04-16T11:47:24.887Z,33.04
2023-04-16T11:48:57.189Z,32.83
2023-04-16T11:51:41.966Z,32.86
2023-04-16T11:53:22.241Z,32.63
2023-04-16T11:54:57.295Z,32.73
2023-04-16T11:56:37.893Z,32.76
2023-04-16T11:58:13.477Z,32.69
2023-04-16T12:01:48.089Z,32.57
2023-04-16T12:03:38.151Z,32.51
2023-04-16T12:05:34.596Z,32.49
2023-04-16T12:07:22.079Z,32.45
2023-04-16T12:08:53.704Z,32.35
2023-04-16T12:10:26.810Z,32.43
2023-04-16T12:11:58.590Z,32.37
2023-04-16T12:13:30.927Z,32.33
2023-04-16T12:15:05.731Z,32.31
2023-04-16T12:16:38.927Z,32.19
2023-04-16T12:18:10.887Z,32.12
2023-04-16T12:19:50.411Z,31.92
2023-04-16T12:21:22.120Z,32.04
2023-04-16T12:22:55.575Z,31.96
2023-04-16T12:24:39.028Z,31.97
2023-04-16T12:26:20.496Z,31.88
2023-04-16T12:27:54.045Z,31.92
2023-04-16T12:29:32.771Z,31.83
2023-04-16T12:31:07.326Z,32.01
2023-04-16T12:32:45.322Z,31.94
2023-04-16T12:34:28.900Z,31.93
2023-04-16T12:36:21.151Z,32.16
2023-04-16T12:38:05.875Z,32.09
2023-04-16T12:39:39.004Z,31.92
2023-04-16T12:41:12.940Z,32.07
2023-04-16T12:42:47.154Z,32.31
2023-04-16T12:44:29.899Z,32.29
2023-04-16T12:46:04.122Z,32.59
2023-04-16T12:47:45.707Z,32.56
2023-04-16T12:49:17.512Z,32.77
2023-04-16T12:52:51.960Z,32.87
2023-04-16T12:54:27.130Z,33.02
2023-04-16T12:55:59.847Z,32.81
2023-04-16T12:57:31.762Z,33.13
2023-04-16T12:59:06.728Z,33.09
2023-04-16T13:00:45.900Z,33.27
2023-04-16T13:02:23.825Z,33.31
2023-04-16T13:03:55.840Z,33.11
2023-04-16T13:05:47.447Z,33.35
2023-04-16T13:07:19.441Z,33.22
2023-04-16T13:09:03.349Z,33.22
2023-04-16T13:11:03.168Z,33.32
2023-04-16T13:12:50.220Z,33.18
2023-04-16T13:14:32.950Z,32.91
2023-04-16T13:16:06.969Z,33.15
2023-04-16T13:17:51.531Z,33.22
2023-04-16T13:19:23.391Z,33.16
2023-04-16T13:20:57.459Z,33.14
2023-04-16T13:22:37.070Z,33.41
2023-04-16T13:24:16.288Z,33.69
2023-04-16T13:25:53.495Z,33.67
2023-04-16T13:27:34.553Z,33.54
2023-04-16T13:29:15.856Z,33.53
2023-04-16T13:30:51.023Z,33.61
2023-04-16T13:32:47.434Z,33.89
2023-04-16T13:34:42.012Z,33.88
2023-04-16T13:36:16.126Z,34.08
2023-04-16T13:37:47.925Z,34.15
2023-04-16T13:39:28.908Z,34.21
2023-04-16T13:41:12.879Z,34.30
2023-04-16T13:42:48.128Z,34.21
2023-04-16T13:44:28.551Z,34.35
2023-04-16T13:46:01.426Z,34.59
2023-04-16T13:47:40.813Z,34.21
2023-04-16T13:49:40.532Z,34.36
2023-04-16T13:51:17.910Z,34.46
2023-04-16T13:52:52.994Z,34.28
2023-04-16T13:54:27.372Z,34.58
2023-04-16T13:55:59.619Z,34.42
2023-04-16T13:57:38.197Z,34.52
2023-04-16T13:59:10.394Z,34.46
2023-04-16T14:00:45.575Z,34.68
2023-04-16T14:02:26.330Z,34.66
2023-04-16T14:04:06.809Z,34.27
2023-04-16T14:05:39.595Z,34.36
2023-04-16T14:07:40.710Z,34.46
2023-04-16T14:09:12.847Z,34.32
2023-04-16T14:12:31.862Z,34.11
2023-04-16T14:14:09.804Z,34.01
2023-04-16T14:15:52.200Z,33.75
2023-04-16T14:17:41.597Z,34.07
2023-04-16T14:19:20.804Z,34.14
2023-04-16T14:20:58.953Z,34.28
2023-04-16T14:22:34.150Z,34.14
2023-04-16T14:24:06.195Z,34.15
2023-04-16T14:25:38.185Z,34.14
2023-04-16T14:27:17.207Z,34.42
2023-04-16T14:28:51.152Z,34.55
2023-04-16T14:30:25.222Z,34.70
2023-04-16T14:31:57.425Z,34.89
2023-04-16T14:33:29.927Z,34.82
2023-04-16T14:35:01.547Z,34.67
2023-04-16T14:36:33.323Z,34.95
2023-04-16T14:38:05.680Z,34.74
2023-04-16T14:39:39.690Z,34.87
2023-04-16T14:41:13.114Z,34.68
2023-04-16T14:42:47.874Z,34.35
2023-04-16T14:44:19.978Z,34.51
2023-04-16T14:45:59.199Z,34.55
2023-04-16T14:47:54.323Z,34.75
2023-04-16T14:49:30.999Z,34.35
2023-04-16T14:51:04.775Z,34.32
2023-04-16T14:52:57.747Z,34.38
2023-04-16T14:54:42.348Z,34.27
2023-04-16T14:56:16.587Z,34.22
2023-04-16T14:57:54.482Z,34.36
2023-04-16T14:59:47.132Z,34.14
2023-04-16T15:01:19.072Z,34.37
2023-04-16T15:02:52.759Z,34.63
2023-04-16T15:04:27.585Z,34.49
2023-04-16T15:05:59.639Z,34.37
2023-04-16T15:07:31.886Z,34.51
2023-04-16T15:09:07.527Z,34.62
2023-04-16T15:10:39.496Z,34.44
2023-04-16T15:12:11.430Z,34.55
2023-04-16T15:13:43.298Z,34.32
2023-04-16T15:15:15.263Z,34.59
2023-04-16T15:16:47.312Z,34.54
2023-04-16T15:18:28.929Z,34.42
2023-04-16T15:20:08.154Z,34.45
2023-04-16T15:21:40.383Z,34.29
2023-04-16T15:23:18.852Z,34.47
2023-04-16T15:24:54.577Z,34.42
2023-04-16T15:26:28.760Z,34.47
2023-04-16T15:28:03.669Z,34.24
2023-04-16T15:29:35.745Z,34.23
2023-04-16T15:31:07.665Z,34.24
2023-04-16T15:32:39.512Z,34.27
2023-04-16T15:34:11.526Z,34.51
2023-04-16T15:35:45.492Z,34.33
2023-04-16T15:37:17.251Z,34.51
2023-04-16T15:38:49.165Z,34.46
2023-04-16T15:40:21.257Z,34.67
2023-04-16T15:42:01.560Z,34.46
2023-04-16T15:43:38.975Z,34.68
2023-04-16T15:47:29.520Z,34.98
2023-04-16T15:51:41.456Z,35.20
2023-04-16T15:53:13.384Z,35.16
2023-04-16T15:55:19.378Z,35.14
2023-04-16T15:56:51.512Z,35.29
2023-04-16T15:58:24.536Z,35.27
2023-04-16T16:00:06.411Z,35.19
2023-04-16T16:01:39.101Z,35.43
2023-04-16T16:03:11.812Z,35.32
2023-04-16T16:04:46.472Z,35.43
2023-04-16T16:06:18.473Z,35.44
2023-04-16T16:07:52.036Z,35.44
2023-04-16T16:09:27.246Z,35.51
2023-04-16T16:10:59.453Z,35.34
2023-04-16T16:12:31.695Z,35.55
2023-04-16T16:14:05.595Z,35.57
2023-04-16T16:15:37.430Z,35.64
2023-04-16T16:17:09.552Z,35.61
2023-04-16T16:18:42.621Z,35.43
2023-04-16T16:20:20.339Z,35.59
2023-04-16T16:21:54.803Z,35.48
2023-04-16T16:23:27.288Z,35.40
2023-04-16T16:24:59.274Z,35.49
2023-04-16T16:26:31.121Z,35.50
2023-04-16T16:28:06.710Z,35.41
2023-04-16T16:29:38.922Z,35.55
2023-04-16T16:31:13.079Z,35.46
2023-04-16T16:32:45.063Z,35.51
2023-04-16T16:34:21.250Z,35.50
2023-04-16T16:35:53.627Z,35.50
2023-04-16T16:37:27.079Z,35.56
2023-04-16T16:38:59.352Z,35.59
2023-04-16T16:40:31.521Z,35.69
2023-04-16T16:42:03.272Z,35.88
2023-04-16T16:43:35.318Z,35.77
2023-04-16T16:45:08.198Z,35.86
2023-04-16T16:46:40.149Z,35.91
2023-04-16T16:48:12.436Z,35.83
2023-04-16T16:49:50.043Z,36.02
2023-04-16T16:51:25.334Z,35.85
2023-04-16T16:52:58.782Z,35.94
2023-04-16T16:54:31.284Z,35.85
2023-04-16T16:56:03.310Z,35.92
2023-04-16T16:57:37.528Z,36.01
2023-04-16T16:59:09.637Z,35.81
2023-04-16T17:00:42.256Z,35.78
2023-04-16T17:02:16.341Z,36.04
2023-04-16T17:03:48.952Z,36.01
2023-04-16T17:05:23.429Z,35.78
2023-04-16T17:06:55.291Z,36.00
2023-04-16T17:08:27.481Z,36.22
2023-04-16T17:10:02.413Z,36.17
2023-04-16T17:11:35.752Z,36.48
2023-04-16T17:13:07.451Z,36.30
2023-04-16T17:14:39.547Z,36.36
2023-04-16T17:16:12.382Z,36.40
2023-04-16T17:17:50.015Z,36.57
2023-04-16T17:19:23.103Z,36.67
2023-04-16T17:20:54.838Z,36.62
2023-04-16T17:22:26.695Z,36.78
2023-04-16T17:24:00.599Z,36.80
2023-04-16T17:25:32.308Z,36.82
2023-04-16T17:27:04.355Z,36.86
2023-04-16T17:28:36.646Z,36.81
2023-04-16T17:30:08.657Z,36.81
2023-04-16T17:31:40.846Z,37.11
2023-04-16T17:33:12.738Z,36.97
2023-04-16T17:34:44.668Z,36.96
2023-04-16T17:36:17.492Z,37.26
2023-04-16T17:37:49.258Z,37.34
2023-04-16T17:39:21.115Z,37.28
2023-04-16T17:40:55.565Z,37.16
2023-04-16T17:42:27.261Z,37.31
2023-04-16T17:44:01.254Z,37.36
2023-04-16T17:45:33.704Z,37.07
2023-04-16T17:47:05.551Z,37.14
2023-04-16T17:48:38.645Z,37.27
2023-04-16T17:50:10.781Z,37.50
2023-04-16T17:51:44.628Z,37.53
2023-04-16T17:53:16.447Z,37.84
2023-04-16T17:54:48.728Z,37.59
2023-04-16T17:56:20.676Z,37.92
2023-04-16T17:57:52.279Z,37.87
2023-04-16T17:59:24.159Z,38.19
2023-04-16T18:00:55.789Z,38.04
2023-04-16T18:02:27.579Z,38.10
2023-04-16T18:03:59.573Z,38.19
2023-04-16T18:05:31.423Z,37.94
2023-04-16T18:07:03.067Z,38.47
2023-04-16T18:08:36.709Z,38.16
2023-04-16T18:10:08.732Z,38.35
2023-04-16T18:11:42.358Z,38.75
2023-04-16T18:13:14.389Z,38.51
2023-04-16T18:14:46.654Z,38.52
2023-04-16T18:16:18.486Z,38.59
2023-04-16T18:17:52.434Z,38.43
2023-04-16T18:19:24.431Z,38.73
2023-04-16T18:20:58.694Z,39.17
2023-04-16T18:22:32.059Z,38.90
2023-04-16T18:24:03.838Z,39.16
2023-04-16T18:25:40.356Z,38.88
2023-04-16T18:27:14.257Z,38.95
2023-04-16T18:28:49.752Z,39.10
2023-04-16T18:30:26.391Z,39.38
2023-04-16T18:31:59.178Z,39.14
2023-04-16T18:33:48.805Z,39.29
2023-04-16T18:35:23.311Z,39.11
2023-04-16T18:36:55.361Z,39.11
2023-04-16T18:38:27.245Z,39.49
2023-04-16T18:39:59.100Z,39.33
2023-04-16T18:41:31.511Z,39.36
2023-04-16T18:43:03.591Z,39.60
2023-04-16T18:44:40.873Z,39.91
2023-04-16T18:46:13.132Z,39.96
2023-04-16T18:47:46.874Z,39.68
2023-04-16T18:49:18.934Z,39.54
2023-04-16T18:50:53.377Z,39.67
2023-04-16T18:52:25.070Z,39.98
2023-04-16T18:53:57.035Z,40.13
2023-04-16T18:55:30.467Z,40.10
2023-04-16T18:57:02.871Z,39.97
2023-04-16T18:58:35.399Z,39.91
2023-04-16T19:00:13.016Z,39.83
2023-04-16T19:01:44.746Z,40.11
2023-04-16T19:03:16.492Z,40.16
2023-04-16T19:04:50.856Z,40.15
2023-04-16T19:06:25.048Z,40.21
2023-04-16T19:07:57.866Z,40.32
2023-04-16T19:09:29.745Z,40.49
2023-04-16T19:11:01.752Z,40.87
2023-04-16T19:12:33.643Z,40.74
2023-04-16T19:14:07.912Z,41.05
2023-04-16T19:15:40.040Z,41.03
2023-04-16T19:17:12.424Z,41.27
2023-04-16T19:18:44.176Z,41.10
2023-04-16T19:20:16.018Z,41.29
2023-04-16T19:21:47.641Z,41.06
2023-04-16T19:23:19.389Z,41.12
2023-04-16T19:24:51.403Z,41.28
2023-04-16T19:26:23.259Z,41.63
2023-04-16T19:27:56.121Z,41.75
2023-04-16T19:29:28.085Z,41.66
2023-04-16T19:31:03.326Z,41.78
2023-04-16T19:32:35.230Z,41.76
2023-04-16T19:34:07.119Z,41.51
2023-04-16T19:35:39.863Z,41.41
2023-04-16T19:37:11.583Z,41.83
2023-04-16T19:38:43.571Z,41.82
2023-04-16T19:40:15.545Z,41.88
2023-04-16T19:41:47.297Z,41.89
2023-04-16T19:43:19.698Z,41.88
2023-04-16T19:44:53.236Z,41.75
2023-04-16T19:46:25.227Z,41.55
2023-04-16T19:47:57.009Z,41.93
2023-04-16T19:49:28.789Z,41.62
2023-04-16T19:51:06.239Z,41.48
2023-04-16T19:52:39.276Z,41.86
2023-04-16T19:54:10.980Z,41.86
2023-04-16T19:55:42.842Z,41.76
2023-04-16T19:57:14.573Z,41.61
2023-04-16T19:58:46.578Z,41.66
2023-04-16T20:00:18.436Z,41.68
2023-04-16T20:01:51.937Z,41.50
2023-04-16T20:03:23.602Z,41.84
2023-04-16T20:04:55.769Z,42.03
2023-04-16T20:06:28.182Z,41.77
2023-04-16T20:08:00.034Z,41.79
2023-04-16T20:09:31.850Z,41.79
2023-04-16T20:11:03.557Z,42.13
2023-04-16T20:12:35.301Z,42.02
2023-04-16T20:14:10.270Z,42.37
2023-04-16T20:15:44.982Z,42.05
2023-04-16T20:17:20.280Z,42.19
2023-04-16T20:18:56.427Z,42.28
2023-04-16T20:20:28.159Z,42.40
2023-04-16T20:22:00.071Z,42.56
2023-04-16T20:23:32.347Z,42.72
2023-04-16T20:25:05.742Z,42.68
2023-04-16T20:26:41.654Z,42.84
2023-04-16T20:28:16.451Z,42.95
2023-04-16T20:29:48.379Z,42.95
2023-04-16T20:31:20.171Z,43.09
2023-04-16T20:32:52.066Z,43.06
2023-04-16T20:34:23.754Z,43.23
2023-04-16T20:35:56.329Z,43.05
2023-04-16T20:37:31.367Z,43.13
2023-04-16T20:39:05.902Z,42.92
2023-04-16T20:40:41.403Z,43.14
2023-04-16T20:42:13.233Z,43.29
2023-04-16T20:43:45.228Z,43.33
2023-04-16T20:45:17.089Z,43.52
2023-04-16T20:46:50.222Z,43.49
2023-04-16T20:48:22.713Z,43.47
2023-04-16T20:49:57.387Z,43.23
2023-04-16T20:51:29.094Z,43.40
2023-04-16T20:53:00.985Z,43.69
2023-04-16T20:54:34.456Z,43.78
2023-04-16T20:56:07.055Z,43.90
2023-04-16T20:57:39.275Z,43.58
2023-04-16T20:59:13.491Z,43.61
2023-04-16T21:00:48.544Z,43.47
2023-04-16T21:02:24.520Z,43.86
2023-04-16T21:03:58.473Z,43.73
2023-04-16T21:05:30.481Z,43.84
2023-04-16T21:07:04.469Z,43.95
2023-04-16T21:08:36.466Z,43.92
2023-04-16T21:10:10.497Z,44.08
2023-04-16T21:11:42.790Z,44.01
2023-04-16T21:13:15.024Z,44.06
2023-04-16T21:14:46.715Z,44.33
2023-04-16T21:16:18.969Z,44.25
2023-04-16T21:17:50.891Z,44.24
2023-04-16T21:19:22.632Z,44.61
2023-04-16T21:20:54.242Z,44.29
2023-04-16T21:22:26.050Z,44.31
2023-04-16T21:23:58.143Z,44.24
2023-04-16T21:25:29.924Z,44.45
2023-04-16T21:27:01.911Z,44.32
2023-04-16T21:28:34.379Z,44.59
2023-04-16T21:30:06.274Z,44.51
2023-04-16T21:31:37.922Z,44.43
2023-04-16T21:33:11.940Z,44.32
2023-04-16T21:34:45.105Z,44.69
2023-04-16T21:36:16.756Z,44.37
2023-04-16T21:37:48.344Z,44.32
2023-04-16T21:39:21.731Z,44.55
2023-04-16T21:40:56.939Z,44.46
2023-04-16T21:42:28.614Z,44.55
2023-04-16T21:44:00.193Z,44.77
2023-04-16T21:45:31.851Z,44.66
2023-04-16T21:47:03.700Z,45.07
2023-04-16T21:48:35.388Z,44.78
2023-04-16T21:50:07.274Z,45.12
2023-04-16T21:51:40.459Z,45.10
2023-04-16T21:53:12.324Z,44.96
2023-04-16T21:54:44.282Z,45.39
2023-04-16T21:56:16.223Z,45.24
2023-04-16T21:57:47.836Z,45.23
2023-04-16T21:59:19.661Z,45.36
2023-04-16T22:00:51.368Z,45.28
2023-04-16T22:02:23.091Z,45.66
2023-04-16T22:03:54.674Z,45.38
2023-04-16T22:05:26.498Z,45.33
2023-04-16T22:07:03.263Z,45.49
2023-04-16T22:08:34.860Z,45.91
2023-04-16T22:10:06.999Z,45.61
2023-04-16T22:11:38.740Z,45.74
2023-04-16T22:13:12.842Z,45.49
2023-04-16T22:14:55.681Z,45.65
2023-04-16T22:16:34.040Z,45.79
2023-04-16T22:18:06.247Z,45.55
2023-04-16T22:19:40.585Z,45.86
2023-04-16T22:21:12.076Z,45.93
2023-04-16T22:22:43.905Z,46.21
2023-04-16T22:24:16.370Z,46.04
2023-04-16T22:25:47.905Z,46.20
2023-04-16T22:27:19.506Z,45.99
2023-04-16T22:28:51.604Z,46.20